sensor_id;sensor_type;location;lat;lon;timestamp;P1;P2;P0
47810;PMS5003;33575;52.600;7.318;2022-11-15T00:00:48;37;35;
47810;PMS5003;33575;52.600;7.318;2022-11-15T00:03:19;43;41;
47810;PMS5003;33575;52.600;7.318;2022-11-15T00:05:48;38;36;
47810;PMS5003;33575;52.600;7.318;2022-11-15T00:08:19;35;33;
47810;PMS5003;33575;52.600;7.318;2022-11-15T00:10:54;37;32;
47810;PMS5003;33575;52.600;7.318;2022-11-15T00:13:20;35;34;
47810;PMS5003;33575;52.600;7.318;2022-11-15T00:15:50;32;31;
47810;PMS5003;33575;52.600;7.318;2022-11-15T00:18:20;40;38;
47810;PMS5003;33575;52.600;7.318;2022-11-15T00:20:51;35;33;
47810;PMS5003;33575;52.600;7.318;2022-11-15T00:23:22;37;36;
47810;PMS5003;33575;52.600;7.318;2022-11-15T00:25:55;39;37;
47810;PMS5003;33575;52.600;7.318;2022-11-15T00:28:23;35;33;
47810;PMS5003;33575;52.600;7.318;2022-11-15T00:30:53;40;36;
47810;PMS5003;33575;52.600;7.318;2022-11-15T00:33:24;36;33;
47810;PMS5003;33575;52.600;7.318;2022-11-15T00:35:59;47;39;
47810;PMS5003;33575;52.600;7.318;2022-11-15T00:38:25;32;31;
47810;PMS5003;33575;52.600;7.318;2022-11-15T00:40:55;37;35;
47810;PMS5003;33575;52.600;7.318;2022-11-15T00:43:26;38;35;
47810;PMS5003;33575;52.600;7.318;2022-11-15T00:45:57;29;29;
47810;PMS5003;33575;52.600;7.318;2022-11-15T00:48:27;38;34;
47810;PMS5003;33575;52.600;7.318;2022-11-15T00:50:58;32;30;
47810;PMS5003;33575;52.600;7.318;2022-11-15T00:53:29;34;32;
47810;PMS5003;33575;52.600;7.318;2022-11-15T00:55:59;34;33;
47810;PMS5003;33575;52.600;7.318;2022-11-15T00:58:30;34;33;
47810;PMS5003;33575;52.600;7.318;2022-11-15T01:01:05;31;30;
47810;PMS5003;33575;52.600;7.318;2022-11-15T01:03:32;35;34;
47810;PMS5003;33575;52.600;7.318;2022-11-15T01:06:01;41;36;
47810;PMS5003;33575;52.600;7.318;2022-11-15T01:08:31;38;35;
47810;PMS5003;33575;52.600;7.318;2022-11-15T01:11:02;31;30;
47810;PMS5003;33575;52.600;7.318;2022-11-15T01:13:32;36;32;
47810;PMS5003;33575;52.600;7.318;2022-11-15T01:16:05;35;33;
47810;PMS5003;33575;52.600;7.318;2022-11-15T01:18:32;38;35;
47810;PMS5003;33575;52.600;7.318;2022-11-15T01:21:07;31;30;
47810;PMS5003;33575;52.600;7.318;2022-11-15T01:23:34;33;31;
47810;PMS5003;33575;52.600;7.318;2022-11-15T01:26:04;37;33;
47810;PMS5003;33575;52.600;7.318;2022-11-15T01:28:34;35;34;
47810;PMS5003;33575;52.600;7.318;2022-11-15T01:31:06;36;34;
47810;PMS5003;33575;52.600;7.318;2022-11-15T01:33:35;31;28;
47810;PMS5003;33575;52.600;7.318;2022-11-15T01:36:07;39;36;
47810;PMS5003;33575;52.600;7.318;2022-11-15T01:38:36;36;32;
47810;PMS5003;33575;52.600;7.318;2022-11-15T01:41:12;29;27;
47810;PMS5003;33575;52.600;7.318;2022-11-15T01:43:39;36;34;
47810;PMS5003;33575;52.600;7.318;2022-11-15T01:46:12;37;32;
47810;PMS5003;33575;52.600;7.318;2022-11-15T01:48:39;29;28;
47810;PMS5003;33575;52.600;7.318;2022-11-15T01:51:10;35;35;
47810;PMS5003;33575;52.600;7.318;2022-11-15T01:53:40;31;29;
47810;PMS5003;33575;52.600;7.318;2022-11-15T01:56:11;36;34;
47810;PMS5003;33575;52.600;7.318;2022-11-15T01:58:41;33;31;
47810;PMS5003;33575;52.600;7.318;2022-11-15T02:01:11;30;28;
47810;PMS5003;33575;52.600;7.318;2022-11-15T02:03:42;33;32;
47810;PMS5003;33575;52.600;7.318;2022-11-15T02:06:11;32;29;
47810;PMS5003;33575;52.600;7.318;2022-11-15T02:08:42;34;33;
47810;PMS5003;33575;52.600;7.318;2022-11-15T02:11:13;35;34;
47810;PMS5003;33575;52.600;7.318;2022-11-15T02:13:43;38;32;
47810;PMS5003;33575;52.600;7.318;2022-11-15T02:16:15;30;28;
47810;PMS5003;33575;52.600;7.318;2022-11-15T02:18:45;38;34;
47810;PMS5003;33575;52.600;7.318;2022-11-15T02:21:17;39;33;
47810;PMS5003;33575;52.600;7.318;2022-11-15T02:28:46;32;31;
47810;PMS5003;33575;52.600;7.318;2022-11-15T02:31:17;38;35;
47810;PMS5003;33575;52.600;7.318;2022-11-15T02:33:48;31;30;
47810;PMS5003;33575;52.600;7.318;2022-11-15T02:36:16;37;34;
47810;PMS5003;33575;52.600;7.318;2022-11-15T02:38:46;36;34;
47810;PMS5003;33575;52.600;7.318;2022-11-15T02:41:16;35;33;
47810;PMS5003;33575;52.600;7.318;2022-11-15T02:43:47;35;30;
47810;PMS5003;33575;52.600;7.318;2022-11-15T02:46:18;42;37;
47810;PMS5003;33575;52.600;7.318;2022-11-15T02:48:47;37;35;
47810;PMS5003;33575;52.600;7.318;2022-11-15T02:51:17;33;30;
47810;PMS5003;33575;52.600;7.318;2022-11-15T02:53:48;35;32;
47810;PMS5003;33575;52.600;7.318;2022-11-15T02:56:18;40;38;
47810;PMS5003;33575;52.600;7.318;2022-11-15T02:58:54;36;32;
47810;PMS5003;33575;52.600;7.318;2022-11-15T03:01:22;34;33;
47810;PMS5003;33575;52.600;7.318;2022-11-15T03:03:53;34;33;
47810;PMS5003;33575;52.600;7.318;2022-11-15T03:06:22;37;36;
47810;PMS5003;33575;52.600;7.318;2022-11-15T03:08:52;29;28;
47810;PMS5003;33575;52.600;7.318;2022-11-15T03:11:21;34;33;
47810;PMS5003;33575;52.600;7.318;2022-11-15T03:13:53;40;36;
47810;PMS5003;33575;52.600;7.318;2022-11-15T03:16:23;37;34;
47810;PMS5003;33575;52.600;7.318;2022-11-15T03:18:52;34;31;
47810;PMS5003;33575;52.600;7.318;2022-11-15T03:21:22;28;27;
47810;PMS5003;33575;52.600;7.318;2022-11-15T03:23:52;36;35;
47810;PMS5003;33575;52.600;7.318;2022-11-15T03:26:23;34;30;
47810;PMS5003;33575;52.600;7.318;2022-11-15T03:28:54;36;34;
47810;PMS5003;33575;52.600;7.318;2022-11-15T03:31:25;29;28;
47810;PMS5003;33575;52.600;7.318;2022-11-15T03:33:55;29;28;
47810;PMS5003;33575;52.600;7.318;2022-11-15T03:36:25;32;31;
47810;PMS5003;33575;52.600;7.318;2022-11-15T03:38:56;30;28;
47810;PMS5003;33575;52.600;7.318;2022-11-15T03:41:28;33;32;
47810;PMS5003;33575;52.600;7.318;2022-11-15T03:43:57;33;31;
47810;PMS5003;33575;52.600;7.318;2022-11-15T03:46:28;38;36;
47810;PMS5003;33575;52.600;7.318;2022-11-15T03:48:59;33;31;
47810;PMS5003;33575;52.600;7.318;2022-11-15T03:51:28;28;25;
47810;PMS5003;33575;52.600;7.318;2022-11-15T03:53:58;34;32;
47810;PMS5003;33575;52.600;7.318;2022-11-15T03:56:28;32;30;
47810;PMS5003;33575;52.600;7.318;2022-11-15T03:58:59;32;31;
47810;PMS5003;33575;52.600;7.318;2022-11-15T04:01:29;32;31;
47810;PMS5003;33575;52.600;7.318;2022-11-15T04:03:59;38;32;
47810;PMS5003;33575;52.600;7.318;2022-11-15T04:06:29;31;30;
47810;PMS5003;33575;52.600;7.318;2022-11-15T04:08:59;37;35;
47810;PMS5003;33575;52.600;7.318;2022-11-15T04:11:30;35;33;
47810;PMS5003;33575;52.600;7.318;2022-11-15T04:14:00;29;28;
47810;PMS5003;33575;52.600;7.318;2022-11-15T04:16:31;33;30;
47810;PMS5003;33575;52.600;7.318;2022-11-15T04:19:01;31;31;
47810;PMS5003;33575;52.600;7.318;2022-11-15T04:21:31;40;34;
47810;PMS5003;33575;52.600;7.318;2022-11-15T04:24:02;29;29;
47810;PMS5003;33575;52.600;7.318;2022-11-15T04:26:32;28;27;
47810;PMS5003;33575;52.600;7.318;2022-11-15T04:29:02;37;35;
47810;PMS5003;33575;52.600;7.318;2022-11-15T04:31:32;31;31;
47810;PMS5003;33575;52.600;7.318;2022-11-15T04:34:03;34;32;
47810;PMS5003;33575;52.600;7.318;2022-11-15T04:36:33;30;29;
47810;PMS5003;33575;52.600;7.318;2022-11-15T04:39:04;30;29;
47810;PMS5003;33575;52.600;7.318;2022-11-15T04:41:34;25;25;
47810;PMS5003;33575;52.600;7.318;2022-11-15T04:44:05;31;29;
47810;PMS5003;33575;52.600;7.318;2022-11-15T04:46:36;34;30;
47810;PMS5003;33575;52.600;7.318;2022-11-15T04:49:06;28;26;
47810;PMS5003;33575;52.600;7.318;2022-11-15T04:51:36;28;25;
47810;PMS5003;33575;52.600;7.318;2022-11-15T04:54:07;30;27;
47810;PMS5003;33575;52.600;7.318;2022-11-15T04:56:38;30;28;
47810;PMS5003;33575;52.600;7.318;2022-11-15T04:59:08;30;27;
47810;PMS5003;33575;52.600;7.318;2022-11-15T05:01:43;27;26;
47810;PMS5003;33575;52.600;7.318;2022-11-15T05:04:09;32;31;
47810;PMS5003;33575;52.600;7.318;2022-11-15T05:06:39;29;28;
47810;PMS5003;33575;52.600;7.318;2022-11-15T05:09:10;31;29;
47810;PMS5003;33575;52.600;7.318;2022-11-15T05:11:41;31;29;
47810;PMS5003;33575;52.600;7.318;2022-11-15T05:14:11;31;27;
47810;PMS5003;33575;52.600;7.318;2022-11-15T05:16:42;29;26;
47810;PMS5003;33575;52.600;7.318;2022-11-15T05:19:12;30;29;
47810;PMS5003;33575;52.600;7.318;2022-11-15T05:21:43;33;30;
47810;PMS5003;33575;52.600;7.318;2022-11-15T05:24:13;30;29;
47810;PMS5003;33575;52.600;7.318;2022-11-15T05:26:44;24;23;
47810;PMS5003;33575;52.600;7.318;2022-11-15T05:29:14;27;25;
47810;PMS5003;33575;52.600;7.318;2022-11-15T05:31:45;27;25;
47810;PMS5003;33575;52.600;7.318;2022-11-15T05:34:15;28;26;
47810;PMS5003;33575;52.600;7.318;2022-11-15T05:36:46;29;28;
47810;PMS5003;33575;52.600;7.318;2022-11-15T05:39:16;30;27;
47810;PMS5003;33575;52.600;7.318;2022-11-15T05:41:46;28;27;
47810;PMS5003;33575;52.600;7.318;2022-11-15T05:44:17;30;27;
47810;PMS5003;33575;52.600;7.318;2022-11-15T05:46:47;26;26;
47810;PMS5003;33575;52.600;7.318;2022-11-15T05:49:17;30;29;
47810;PMS5003;33575;52.600;7.318;2022-11-15T05:51:47;29;28;
47810;PMS5003;33575;52.600;7.318;2022-11-15T05:54:18;24;23;
47810;PMS5003;33575;52.600;7.318;2022-11-15T05:56:49;25;24;
47810;PMS5003;33575;52.600;7.318;2022-11-15T05:59:19;23;23;
47810;PMS5003;33575;52.600;7.318;2022-11-15T06:01:50;26;24;
47810;PMS5003;33575;52.600;7.318;2022-11-15T06:04:21;28;24;
47810;PMS5003;33575;52.600;7.318;2022-11-15T06:06:51;32;30;
47810;PMS5003;33575;52.600;7.318;2022-11-15T06:09:21;34;33;
47810;PMS5003;33575;52.600;7.318;2022-11-15T06:11:51;23;23;
47810;PMS5003;33575;52.600;7.318;2022-11-15T06:14:22;23;22;
47810;PMS5003;33575;52.600;7.318;2022-11-15T06:16:53;27;26;
47810;PMS5003;33575;52.600;7.318;2022-11-15T06:19:23;29;26;
47810;PMS5003;33575;52.600;7.318;2022-11-15T06:21:53;28;25;
47810;PMS5003;33575;52.600;7.318;2022-11-15T06:24:24;25;24;
47810;PMS5003;33575;52.600;7.318;2022-11-15T06:26:54;28;27;
47810;PMS5003;33575;52.600;7.318;2022-11-15T06:29:25;29;25;
47810;PMS5003;33575;52.600;7.318;2022-11-15T06:31:56;27;27;
47810;PMS5003;33575;52.600;7.318;2022-11-15T06:34:26;28;26;
47810;PMS5003;33575;52.600;7.318;2022-11-15T06:36:56;27;26;
47810;PMS5003;33575;52.600;7.318;2022-11-15T06:39:27;29;28;
47810;PMS5003;33575;52.600;7.318;2022-11-15T06:41:57;24;22;
47810;PMS5003;33575;52.600;7.318;2022-11-15T06:44:28;31;28;
47810;PMS5003;33575;52.600;7.318;2022-11-15T06:46:59;28;28;
47810;PMS5003;33575;52.600;7.318;2022-11-15T06:49:30;24;24;
47810;PMS5003;33575;52.600;7.318;2022-11-15T06:52:00;24;21;
47810;PMS5003;33575;52.600;7.318;2022-11-15T06:54:30;25;25;
47810;PMS5003;33575;52.600;7.318;2022-11-15T06:57:01;25;24;
47810;PMS5003;33575;52.600;7.318;2022-11-15T06:59:36;27;23;
47810;PMS5003;33575;52.600;7.318;2022-11-15T07:02:02;27;25;
47810;PMS5003;33575;52.600;7.318;2022-11-15T07:04:34;23;22;
47810;PMS5003;33575;52.600;7.318;2022-11-15T07:07:03;27;26;
47810;PMS5003;33575;52.600;7.318;2022-11-15T07:09:33;27;25;
47810;PMS5003;33575;52.600;7.318;2022-11-15T07:12:08;26;23;
47810;PMS5003;33575;52.600;7.318;2022-11-15T07:14:34;23;23;
47810;PMS5003;33575;52.600;7.318;2022-11-15T07:17:05;27;26;
47810;PMS5003;33575;52.600;7.318;2022-11-15T07:19:36;27;25;
47810;PMS5003;33575;52.600;7.318;2022-11-15T07:22:07;23;22;
47810;PMS5003;33575;52.600;7.318;2022-11-15T07:24:37;26;24;
47810;PMS5003;33575;52.600;7.318;2022-11-15T07:27:08;32;28;
47810;PMS5003;33575;52.600;7.318;2022-11-15T07:29:39;28;26;
47810;PMS5003;33575;52.600;7.318;2022-11-15T07:32:09;29;26;
47810;PMS5003;33575;52.600;7.318;2022-11-15T07:34:39;27;26;
47810;PMS5003;33575;52.600;7.318;2022-11-15T07:37:09;25;22;
47810;PMS5003;33575;52.600;7.318;2022-11-15T07:39:40;27;24;
47810;PMS5003;33575;52.600;7.318;2022-11-15T07:42:11;24;23;
47810;PMS5003;33575;52.600;7.318;2022-11-15T07:44:41;24;22;
47810;PMS5003;33575;52.600;7.318;2022-11-15T07:47:12;28;25;
47810;PMS5003;33575;52.600;7.318;2022-11-15T07:49:42;30;23;
47810;PMS5003;33575;52.600;7.318;2022-11-15T07:52:13;21;21;
47810;PMS5003;33575;52.600;7.318;2022-11-15T07:54:43;27;25;
47810;PMS5003;33575;52.600;7.318;2022-11-15T07:57:13;24;23;
47810;PMS5003;33575;52.600;7.318;2022-11-15T07:59:44;29;24;
47810;PMS5003;33575;52.600;7.318;2022-11-15T08:02:15;22;20;
47810;PMS5003;33575;52.600;7.318;2022-11-15T08:04:45;23;20;
47810;PMS5003;33575;52.600;7.318;2022-11-15T08:07:15;25;22;
47810;PMS5003;33575;52.600;7.318;2022-11-15T08:09:46;22;21;
47810;PMS5003;33575;52.600;7.318;2022-11-15T08:12:16;24;23;
47810;PMS5003;33575;52.600;7.318;2022-11-15T08:14:46;27;26;
47810;PMS5003;33575;52.600;7.318;2022-11-15T08:17:17;24;22;
47810;PMS5003;33575;52.600;7.318;2022-11-15T08:19:48;23;23;
47810;PMS5003;33575;52.600;7.318;2022-11-15T08:22:19;24;23;
47810;PMS5003;33575;52.600;7.318;2022-11-15T08:24:49;27;27;
47810;PMS5003;33575;52.600;7.318;2022-11-15T08:27:19;22;21;
47810;PMS5003;33575;52.600;7.318;2022-11-15T08:29:50;22;20;
47810;PMS5003;33575;52.600;7.318;2022-11-15T08:32:20;25;21;
47810;PMS5003;33575;52.600;7.318;2022-11-15T08:34:50;20;20;
47810;PMS5003;33575;52.600;7.318;2022-11-15T08:37:21;23;22;
47810;PMS5003;33575;52.600;7.318;2022-11-15T08:39:51;24;23;
47810;PMS5003;33575;52.600;7.318;2022-11-15T08:42:21;21;20;
47810;PMS5003;33575;52.600;7.318;2022-11-15T08:44:52;26;24;
47810;PMS5003;33575;52.600;7.318;2022-11-15T08:47:22;20;20;
47810;PMS5003;33575;52.600;7.318;2022-11-15T08:49:52;23;23;
47810;PMS5003;33575;52.600;7.318;2022-11-15T08:52:22;27;26;
47810;PMS5003;33575;52.600;7.318;2022-11-15T08:54:53;26;25;
47810;PMS5003;33575;52.600;7.318;2022-11-15T08:57:24;26;26;
47810;PMS5003;33575;52.600;7.318;2022-11-15T08:59:54;23;22;
47810;PMS5003;33575;52.600;7.318;2022-11-15T09:02:24;28;26;
47810;PMS5003;33575;52.600;7.318;2022-11-15T09:04:55;23;22;
47810;PMS5003;33575;52.600;7.318;2022-11-15T09:07:25;28;25;
47810;PMS5003;33575;52.600;7.318;2022-11-15T09:09:55;26;25;
47810;PMS5003;33575;52.600;7.318;2022-11-15T09:12:26;25;23;
47810;PMS5003;33575;52.600;7.318;2022-11-15T09:14:57;25;24;
47810;PMS5003;33575;52.600;7.318;2022-11-15T09:17:27;23;21;
47810;PMS5003;33575;52.600;7.318;2022-11-15T09:19:57;20;20;
47810;PMS5003;33575;52.600;7.318;2022-11-15T09:22:28;22;21;
47810;PMS5003;33575;52.600;7.318;2022-11-15T09:24:58;22;22;
47810;PMS5003;33575;52.600;7.318;2022-11-15T09:27:29;27;22;
47810;PMS5003;33575;52.600;7.318;2022-11-15T09:29:59;26;24;
47810;PMS5003;33575;52.600;7.318;2022-11-15T09:32:35;26;23;
47810;PMS5003;33575;52.600;7.318;2022-11-15T09:35:00;24;22;
47810;PMS5003;33575;52.600;7.318;2022-11-15T09:37:31;24;22;
47810;PMS5003;33575;52.600;7.318;2022-11-15T09:40:01;25;25;
47810;PMS5003;33575;52.600;7.318;2022-11-15T09:42:36;23;22;
47810;PMS5003;33575;52.600;7.318;2022-11-15T09:45:05;20;20;
47810;PMS5003;33575;52.600;7.318;2022-11-15T09:47:38;23;21;
47810;PMS5003;33575;52.600;7.318;2022-11-15T09:50:07;23;20;
47810;PMS5003;33575;52.600;7.318;2022-11-15T09:52:34;18;18;
47810;PMS5003;33575;52.600;7.318;2022-11-15T09:55:05;27;25;
47810;PMS5003;33575;52.600;7.318;2022-11-15T09:57:37;21;18;
47810;PMS5003;33575;52.600;7.318;2022-11-15T10:00:12;21;18;
47810;PMS5003;33575;52.600;7.318;2022-11-15T10:02:42;20;19;
47810;PMS5003;33575;52.600;7.318;2022-11-15T10:05:06;19;18;
47810;PMS5003;33575;52.600;7.318;2022-11-15T10:07:37;19;18;
47810;PMS5003;33575;52.600;7.318;2022-11-15T10:10:10;21;20;
47810;PMS5003;33575;52.600;7.318;2022-11-15T10:12:38;19;17;
47810;PMS5003;33575;52.600;7.318;2022-11-15T10:15:16;29;26;
47810;PMS5003;33575;52.600;7.318;2022-11-15T10:17:43;23;21;
47810;PMS5003;33575;52.600;7.318;2022-11-15T10:20:11;21;19;
47810;PMS5003;33575;52.600;7.318;2022-11-15T10:22:40;26;25;
47810;PMS5003;33575;52.600;7.318;2022-11-15T10:25:12;23;22;
47810;PMS5003;33575;52.600;7.318;2022-11-15T10:27:40;29;29;
47810;PMS5003;33575;52.600;7.318;2022-11-15T10:30:11;23;23;
47810;PMS5003;33575;52.600;7.318;2022-11-15T10:32:41;19;19;
47810;PMS5003;33575;52.600;7.318;2022-11-15T10:37:41;18;18;
47810;PMS5003;33575;52.600;7.318;2022-11-15T10:40:15;21;20;
47810;PMS5003;33575;52.600;7.318;2022-11-15T10:42:42;22;22;
47810;PMS5003;33575;52.600;7.318;2022-11-15T10:47:43;18;17;
47810;PMS5003;33575;52.600;7.318;2022-11-15T10:52:45;20;19;
47810;PMS5003;33575;52.600;7.318;2022-11-15T10:55:21;20;18;
47810;PMS5003;33575;52.600;7.318;2022-11-15T10:57:48;16;14;
47810;PMS5003;33575;52.600;7.318;2022-11-15T11:02:55;12;12;
47810;PMS5003;33575;52.600;7.318;2022-11-15T11:07:47;13;13;
47810;PMS5003;33575;52.600;7.318;2022-11-15T11:10:23;14;14;
47810;PMS5003;33575;52.600;7.318;2022-11-15T11:12:48;11;11;
47810;PMS5003;33575;52.600;7.318;2022-11-15T11:15:19;11;11;
47810;PMS5003;33575;52.600;7.318;2022-11-15T11:17:54;13;12;
47810;PMS5003;33575;52.600;7.318;2022-11-15T11:20:21;10;10;
47810;PMS5003;33575;52.600;7.318;2022-11-15T11:22:54;12;12;
47810;PMS5003;33575;52.600;7.318;2022-11-15T11:25:23;11;11;
47810;PMS5003;33575;52.600;7.318;2022-11-15T11:27:56;10;10;
47810;PMS5003;33575;52.600;7.318;2022-11-15T11:30:23;10;10;
47810;PMS5003;33575;52.600;7.318;2022-11-15T11:32:58;11;11;
47810;PMS5003;33575;52.600;7.318;2022-11-15T11:35:24;12;11;
47810;PMS5003;33575;52.600;7.318;2022-11-15T11:37:54;9;8;
47810;PMS5003;33575;52.600;7.318;2022-11-15T11:40:27;6;6;
47810;PMS5003;33575;52.600;7.318;2022-11-15T11:42:55;12;11;
47810;PMS5003;33575;52.600;7.318;2022-11-15T11:45:27;6;5;
47810;PMS5003;33575;52.600;7.318;2022-11-15T11:47:57;4;3;
47810;PMS5003;33575;52.600;7.318;2022-11-15T11:50:25;3;3;
47810;PMS5003;33575;52.600;7.318;2022-11-15T11:53:02;3;3;
47810;PMS5003;33575;52.600;7.318;2022-11-15T11:55:26;4;4;
47810;PMS5003;33575;52.600;7.318;2022-11-15T11:57:59;2;2;
47810;PMS5003;33575;52.600;7.318;2022-11-15T12:00:26;4;3;
47810;PMS5003;33575;52.600;7.318;2022-11-15T12:03:02;3;3;
47810;PMS5003;33575;52.600;7.318;2022-11-15T12:05:28;2;2;
47810;PMS5003;33575;52.600;7.318;2022-11-15T12:08:04;1;1;
47810;PMS5003;33575;52.600;7.318;2022-11-15T12:10:29;2;2;
47810;PMS5003;33575;52.600;7.318;2022-11-15T12:13:00;1;1;
47810;PMS5003;33575;52.600;7.318;2022-11-15T12:15:30;2;2;
47810;PMS5003;33575;52.600;7.318;2022-11-15T12:18:00;3;2;
47810;PMS5003;33575;52.600;7.318;2022-11-15T12:20:32;3;2;
47810;PMS5003;33575;52.600;7.318;2022-11-15T12:23:01;1;1;
47810;PMS5003;33575;52.600;7.318;2022-11-15T12:25:32;3;3;
47810;PMS5003;33575;52.600;7.318;2022-11-15T12:28:03;3;2;
47810;PMS5003;33575;52.600;7.318;2022-11-15T12:33:02;2;2;
47810;PMS5003;33575;52.600;7.318;2022-11-15T12:35:34;2;2;
47810;PMS5003;33575;52.600;7.318;2022-11-15T12:38:03;3;2;
47810;PMS5003;33575;52.600;7.318;2022-11-15T12:40:35;4;3;
47810;PMS5003;33575;52.600;7.318;2022-11-15T12:45:35;4;4;
47810;PMS5003;33575;52.600;7.318;2022-11-15T12:55:36;4;4;
47810;PMS5003;33575;52.600;7.318;2022-11-15T13:00:37;6;5;
47810;PMS5003;33575;52.600;7.318;2022-11-15T13:08:09;6;6;
47810;PMS5003;33575;52.600;7.318;2022-11-15T13:10:39;6;6;
47810;PMS5003;33575;52.600;7.318;2022-11-15T13:13:09;8;8;
47810;PMS5003;33575;52.600;7.318;2022-11-15T13:20:44;7;6;
47810;PMS5003;33575;52.600;7.318;2022-11-15T13:23:12;7;7;
47810;PMS5003;33575;52.600;7.318;2022-11-15T13:25:46;8;8;
47810;PMS5003;33575;52.600;7.318;2022-11-15T13:28:18;8;7;
47810;PMS5003;33575;52.600;7.318;2022-11-15T13:30:48;8;8;
47810;PMS5003;33575;52.600;7.318;2022-11-15T13:33:14;9;9;
47810;PMS5003;33575;52.600;7.318;2022-11-15T13:35:45;9;8;
47810;PMS5003;33575;52.600;7.318;2022-11-15T13:38:17;8;8;
47810;PMS5003;33575;52.600;7.318;2022-11-15T13:40:44;8;8;
47810;PMS5003;33575;52.600;7.318;2022-11-15T13:43:22;6;5;
47810;PMS5003;33575;52.600;7.318;2022-11-15T13:45:45;5;5;
47810;PMS5003;33575;52.600;7.318;2022-11-15T13:48:16;4;4;
47810;PMS5003;33575;52.600;7.318;2022-11-15T13:50:46;6;6;
47810;PMS5003;33575;52.600;7.318;2022-11-15T13:53:17;5;5;
47810;PMS5003;33575;52.600;7.318;2022-11-15T13:55:47;4;4;
47810;PMS5003;33575;52.600;7.318;2022-11-15T13:58:23;5;5;
47810;PMS5003;33575;52.600;7.318;2022-11-15T14:00:48;4;4;
47810;PMS5003;33575;52.600;7.318;2022-11-15T14:03:19;5;5;
47810;PMS5003;33575;52.600;7.318;2022-11-15T14:08:21;4;4;
47810;PMS5003;33575;52.600;7.318;2022-11-15T14:15:52;4;4;
47810;PMS5003;33575;52.600;7.318;2022-11-15T14:23:24;3;3;
47810;PMS5003;33575;52.600;7.318;2022-11-15T14:25:54;3;3;
47810;PMS5003;33575;52.600;7.318;2022-11-15T14:28:28;2;2;
47810;PMS5003;33575;52.600;7.318;2022-11-15T14:30:56;1;1;
47810;PMS5003;33575;52.600;7.318;2022-11-15T14:33:27;3;2;
47810;PMS5003;33575;52.600;7.318;2022-11-15T14:35:56;3;2;
47810;PMS5003;33575;52.600;7.318;2022-11-15T14:38:26;4;4;
47810;PMS5003;33575;52.600;7.318;2022-11-15T14:40:56;5;5;
47810;PMS5003;33575;52.600;7.318;2022-11-15T14:43:27;6;4;
47810;PMS5003;33575;52.600;7.318;2022-11-15T14:45:57;4;3;
47810;PMS5003;33575;52.600;7.318;2022-11-15T14:48:28;2;2;
47810;PMS5003;33575;52.600;7.318;2022-11-15T14:50:58;3;3;
47810;PMS5003;33575;52.600;7.318;2022-11-15T14:53:29;6;5;
47810;PMS5003;33575;52.600;7.318;2022-11-15T14:55:59;5;5;
47810;PMS5003;33575;52.600;7.318;2022-11-15T14:58:30;13;13;
47810;PMS5003;33575;52.600;7.318;2022-11-15T15:01:02;28;28;
47810;PMS5003;33575;52.600;7.318;2022-11-15T15:03:31;22;22;
47810;PMS5003;33575;52.600;7.318;2022-11-15T15:06:01;20;19;
47810;PMS5003;33575;52.600;7.318;2022-11-15T15:08:32;8;8;
47810;PMS5003;33575;52.600;7.318;2022-11-15T15:11:03;5;4;
47810;PMS5003;33575;52.600;7.318;2022-11-15T15:13:33;6;6;
47810;PMS5003;33575;52.600;7.318;2022-11-15T15:16:04;8;7;
47810;PMS5003;33575;52.600;7.318;2022-11-15T15:18:34;6;6;
47810;PMS5003;33575;52.600;7.318;2022-11-15T15:21:11;5;5;
47810;PMS5003;33575;52.600;7.318;2022-11-15T15:23:35;6;6;
47810;PMS5003;33575;52.600;7.318;2022-11-15T15:26:06;3;3;
47810;PMS5003;33575;52.600;7.318;2022-11-15T15:28:36;5;3;
47810;PMS5003;33575;52.600;7.318;2022-11-15T15:31:07;4;4;
47810;PMS5003;33575;52.600;7.318;2022-11-15T15:33:37;3;3;
47810;PMS5003;33575;52.600;7.318;2022-11-15T15:36:09;3;2;
47810;PMS5003;33575;52.600;7.318;2022-11-15T15:38:38;3;3;
47810;PMS5003;33575;52.600;7.318;2022-11-15T15:41:09;3;3;
47810;PMS5003;33575;52.600;7.318;2022-11-15T15:43:39;3;3;
47810;PMS5003;33575;52.600;7.318;2022-11-15T15:46:09;3;3;
47810;PMS5003;33575;52.600;7.318;2022-11-15T15:48:40;5;4;
47810;PMS5003;33575;52.600;7.318;2022-11-15T15:51:15;4;2;
47810;PMS5003;33575;52.600;7.318;2022-11-15T15:53:41;4;3;
47810;PMS5003;33575;52.600;7.318;2022-11-15T15:56:11;2;2;
47810;PMS5003;33575;52.600;7.318;2022-11-15T15:58:42;5;5;
47810;PMS5003;33575;52.600;7.318;2022-11-15T16:01:12;5;5;
47810;PMS5003;33575;52.600;7.318;2022-11-15T16:03:43;2;2;
47810;PMS5003;33575;52.600;7.318;2022-11-15T16:08:49;5;5;
47810;PMS5003;33575;52.600;7.318;2022-11-15T16:11:14;4;4;
47810;PMS5003;33575;52.600;7.318;2022-11-15T16:13:45;4;4;
47810;PMS5003;33575;52.600;7.318;2022-11-15T16:16:15;6;5;
47810;PMS5003;33575;52.600;7.318;2022-11-15T16:18:46;5;5;
47810;PMS5003;33575;52.600;7.318;2022-11-15T16:21:16;7;6;
47810;PMS5003;33575;52.600;7.318;2022-11-15T16:23:47;5;5;
47810;PMS5003;33575;52.600;7.318;2022-11-15T16:26:19;7;7;
47810;PMS5003;33575;52.600;7.318;2022-11-15T16:28:48;6;6;
47810;PMS5003;33575;52.600;7.318;2022-11-15T16:31:18;7;6;
47810;PMS5003;33575;52.600;7.318;2022-11-15T16:33:49;4;4;
47810;PMS5003;33575;52.600;7.318;2022-11-15T16:36:20;7;5;
47810;PMS5003;33575;52.600;7.318;2022-11-15T16:38:50;8;8;
47810;PMS5003;33575;52.600;7.318;2022-11-15T16:41:20;10;10;
47810;PMS5003;33575;52.600;7.318;2022-11-15T16:43:51;5;5;
47810;PMS5003;33575;52.600;7.318;2022-11-15T16:46:22;10;9;
47810;PMS5003;33575;52.600;7.318;2022-11-15T16:48:52;9;9;
47810;PMS5003;33575;52.600;7.318;2022-11-15T16:51:22;7;6;
47810;PMS5003;33575;52.600;7.318;2022-11-15T16:53:52;7;6;
47810;PMS5003;33575;52.600;7.318;2022-11-15T16:56:24;7;7;
47810;PMS5003;33575;52.600;7.318;2022-11-15T16:58:54;11;9;
47810;PMS5003;33575;52.600;7.318;2022-11-15T17:01:25;9;9;
47810;PMS5003;33575;52.600;7.318;2022-11-15T17:03:55;7;7;
47810;PMS5003;33575;52.600;7.318;2022-11-15T17:06:25;8;8;
47810;PMS5003;33575;52.600;7.318;2022-11-15T17:08:56;9;8;
47810;PMS5003;33575;52.600;7.318;2022-11-15T17:11:26;6;6;
47810;PMS5003;33575;52.600;7.318;2022-11-15T17:13:57;7;7;
47810;PMS5003;33575;52.600;7.318;2022-11-15T17:16:27;7;7;
47810;PMS5003;33575;52.600;7.318;2022-11-15T17:18:58;8;7;
47810;PMS5003;33575;52.600;7.318;2022-11-15T17:21:33;7;7;
47810;PMS5003;33575;52.600;7.318;2022-11-15T17:23:59;7;7;
47810;PMS5003;33575;52.600;7.318;2022-11-15T17:26:34;9;9;
47810;PMS5003;33575;52.600;7.318;2022-11-15T17:29:00;7;7;
47810;PMS5003;33575;52.600;7.318;2022-11-15T17:31:30;7;7;
47810;PMS5003;33575;52.600;7.318;2022-11-15T17:34:01;9;8;
47810;PMS5003;33575;52.600;7.318;2022-11-15T17:36:31;9;8;
47810;PMS5003;33575;52.600;7.318;2022-11-15T17:39:02;6;6;
47810;PMS5003;33575;52.600;7.318;2022-11-15T17:41:32;6;6;
47810;PMS5003;33575;52.600;7.318;2022-11-15T17:44:03;6;6;
47810;PMS5003;33575;52.600;7.318;2022-11-15T17:46:33;6;6;